createdAt,value
2023-05-02T00:01:35.917Z,100275.84
2023-05-02T00:04:10.409Z,100272.25
2023-05-02T00:06:42.956Z,100285.94
2023-05-02T00:09:12.570Z,100295.25
2023-05-02T00:14:17.050Z,100296.97
2023-05-02T00:16:46.339Z,100295.34
2023-05-02T00:19:15.648Z,100298.72
2023-05-02T00:21:49.878Z,100302.09
2023-05-02T00:24:26.612Z,100304.66
2023-05-02T00:26:56.068Z,100306.38
2023-05-02T00:29:25.342Z,100307.28
2023-05-02T00:32:00.599Z,100308.97
2023-05-02T00:34:36.570Z,100309.63
2023-05-02T00:37:08.052Z,100319.00
2023-05-02T00:39:37.680Z,100315.59
2023-05-02T00:42:12.712Z,100307.81
2023-05-02T00:44:53.739Z,100329.06
2023-05-02T00:47:23.188Z,100323.16
2023-05-02T00:49:52.642Z,100306.59
2023-05-02T00:52:24.313Z,100326.50
2023-05-02T00:54:53.964Z,100320.38
2023-05-02T00:57:23.199Z,100329.03
2023-05-02T00:59:53.409Z,100330.69
2023-05-02T01:02:32.899Z,100330.69
2023-05-02T01:08:02.668Z,100341.00
2023-05-02T01:10:43.851Z,100354.50
2023-05-02T01:13:19.549Z,100344.88
2023-05-02T01:15:56.354Z,100354.31
2023-05-02T01:18:29.169Z,100367.91
2023-05-02T01:21:07.500Z,100360.16
2023-05-02T01:23:48.180Z,100371.31
2023-05-02T01:29:09.129Z,100381.22
2023-05-02T01:31:41.628Z,100375.09
2023-05-02T01:34:12.969Z,100381.16
2023-05-02T01:36:46.378Z,100385.50
2023-05-02T01:39:20.392Z,100393.03
2023-05-02T01:42:04.311Z,100399.97
2023-05-02T01:44:37.768Z,100402.56
2023-05-02T01:49:45.683Z,100402.38
2023-05-02T01:52:17.582Z,100410.84
2023-05-02T01:57:22.078Z,100411.94
2023-05-02T01:59:55.244Z,100412.81
2023-05-02T02:02:31.013Z,100417.94
2023-05-02T02:05:02.838Z,100423.94
2023-05-02T02:07:32.737Z,100433.31
2023-05-02T02:10:02.931Z,100428.00
2023-05-02T02:12:42.235Z,100432.31
2023-05-02T02:15:21.910Z,100423.44
2023-05-02T02:18:04.870Z,100446.84
2023-05-02T02:20:35.290Z,100446.88
2023-05-02T02:23:09.223Z,100443.53
2023-05-02T02:25:40.057Z,100442.75
2023-05-02T02:28:14.780Z,100452.22
2023-05-02T02:30:46.232Z,100447.06
2023-05-02T02:33:27.079Z,100452.22
2023-05-02T02:36:00.708Z,100452.53
2023-05-02T02:38:39.032Z,100454.66
2023-05-02T02:41:15.517Z,100469.31
2023-05-02T02:43:55.839Z,100471.00
2023-05-02T02:46:48.828Z,100473.50
2023-05-02T02:49:30.064Z,100473.56
2023-05-02T02:52:07.875Z,100466.84
2023-05-02T02:54:48.262Z,100473.06
2023-05-02T02:57:28.959Z,100476.63
2023-05-02T03:00:05.928Z,100491.53
2023-05-02T03:02:42.187Z,100489.22
2023-05-02T03:05:18.621Z,100492.59
2023-05-02T03:07:47.940Z,100491.81
2023-05-02T03:10:24.405Z,100497.97
2023-05-02T03:12:55.310Z,100506.66
2023-05-02T03:15:36.240Z,100503.56
2023-05-02T03:18:19.221Z,100501.00
2023-05-02T03:20:48.741Z,100510.56
2023-05-02T03:23:17.935Z,100508.97
2023-05-02T03:31:09.352Z,100513.75
2023-05-02T03:33:43.799Z,100519.06
2023-05-02T03:36:13.195Z,100491.47
2023-05-02T03:38:42.676Z,100525.41
2023-05-02T03:41:20.667Z,100527.28
2023-05-02T03:43:56.632Z,100526.66
2023-05-02T03:49:16.929Z,100532.13
2023-05-02T03:51:48.451Z,100534.91
2023-05-02T03:54:22.737Z,100538.75
2023-05-02T03:56:52.595Z,100533.97
2023-05-02T03:59:27.919Z,100548.91
2023-05-02T04:01:59.182Z,100547.47
2023-05-02T04:04:41.064Z,100508.69
2023-05-02T04:07:17.759Z,100551.41
2023-05-02T04:10:00.014Z,100551.63
2023-05-02T04:12:29.738Z,100561.22
2023-05-02T04:15:05.564Z,100562.38
2023-05-02T04:17:35.036Z,100569.53
2023-05-02T04:20:08.096Z,100549.13
2023-05-02T04:22:41.232Z,100566.53
2023-05-02T04:27:51.656Z,100566.34
2023-05-02T04:30:24.531Z,100558.97
2023-05-02T04:33:03.202Z,100565.59
2023-05-02T04:35:53.161Z,100555.78
2023-05-02T04:38:24.615Z,100562.25
2023-05-02T04:40:54.639Z,100562.47
2023-05-02T04:43:32.508Z,100550.44
2023-05-02T04:46:04.573Z,100575.59
2023-05-02T04:48:41.611Z,100589.47
2023-05-02T04:51:14.882Z,100591.97
2023-05-02T04:53:47.722Z,100579.09
2023-05-02T04:56:17.549Z,100585.81
2023-05-02T04:58:46.746Z,100582.34
2023-05-02T05:01:21.243Z,100586.72
2023-05-02T05:03:50.958Z,100586.06
2023-05-02T05:06:24.379Z,100574.94
2023-05-02T05:08:55.043Z,100582.63
2023-05-02T05:11:29.451Z,100579.97
2023-05-02T05:14:16.397Z,100583.47
2023-05-02T05:16:49.306Z,100576.56
2023-05-02T05:19:19.266Z,100581.63
2023-05-02T05:21:50.668Z,100582.59
2023-05-02T05:24:21.871Z,100586.09
2023-05-02T05:26:53.063Z,100570.59
2023-05-02T05:29:22.515Z,100583.59
2023-05-02T05:31:51.812Z,100589.63
2023-05-02T05:34:24.827Z,100595.66
2023-05-02T05:36:58.192Z,100592.25
2023-05-02T05:39:32.679Z,100597.44
2023-05-02T05:42:03.550Z,100591.47
2023-05-02T05:44:39.009Z,100588.91
2023-05-02T05:47:21.487Z,100589.78
2023-05-02T05:49:55.130Z,100587.19
2023-05-02T05:52:36.936Z,100578.56
2023-05-02T05:55:07.670Z,100564.69
2023-05-02T05:57:37.069Z,100591.56
2023-05-02T06:00:10.349Z,100582.97
2023-05-02T06:02:46.667Z,100592.47
2023-05-02T06:05:24.250Z,100589.94
2023-05-02T06:07:56.992Z,100595.16
2023-05-02T06:13:06.471Z,100587.53
2023-05-02T06:15:39.076Z,100597.03
2023-05-02T06:18:09.286Z,100588.44
2023-05-02T06:20:45.957Z,100594.44
2023-05-02T06:23:17.788Z,100601.34
2023-05-02T06:25:51.722Z,100597.97
2023-05-02T06:28:21.106Z,100599.69
2023-05-02T06:30:59.713Z,100552.31
2023-05-02T06:33:29.229Z,100596.34
2023-05-02T06:35:59.958Z,100597.22
2023-05-02T06:38:47.562Z,100588.66
2023-05-02T06:41:18.696Z,100594.72
2023-05-02T06:43:53.045Z,100596.50
2023-05-02T06:46:22.260Z,100600.84
2023-05-02T06:48:51.468Z,100581.06
2023-05-02T06:51:27.433Z,100596.56
2023-05-02T06:53:58.768Z,100594.84
2023-05-02T06:56:28.357Z,100569.84
2023-05-02T06:59:12.519Z,100587.13
2023-05-02T07:01:42.081Z,100554.28
2023-05-02T07:04:11.486Z,100595.75
2023-05-02T07:06:40.926Z,100597.47
2023-05-02T07:09:17.316Z,100570.81
2023-05-02T07:11:46.825Z,100585.47
2023-05-02T07:14:16.436Z,100588.94
2023-05-02T07:16:46.245Z,100594.16
2023-05-02T07:19:15.646Z,100583.81
2023-05-02T07:21:44.961Z,100594.16
2023-05-02T07:24:19.210Z,100588.09
2023-05-02T07:26:50.783Z,100583.81
2023-05-02T07:29:20.157Z,100564.81
2023-05-02T07:31:49.361Z,100596.78
2023-05-02T07:34:18.711Z,100597.66
2023-05-02T07:36:47.975Z,100567.47
2023-05-02T07:39:19.252Z,100589.06
2023-05-02T07:41:48.832Z,100589.97
2023-05-02T07:44:18.122Z,100578.72
2023-05-02T07:46:47.504Z,100561.47
2023-05-02T07:49:16.802Z,100585.63
2023-05-02T07:51:58.451Z,100573.59
2023-05-02T07:54:29.725Z,100584.78
2023-05-02T07:57:02.561Z,100569.28
2023-05-02T08:02:07.860Z,100582.22
2023-05-02T08:04:37.650Z,100582.22
2023-05-02T08:09:48.787Z,100560.66
2023-05-02T08:12:23.976Z,100582.22
2023-05-02T08:14:53.229Z,100573.63
2023-05-02T08:17:22.839Z,100549.47
2023-05-02T08:20:02.693Z,100547.72
2023-05-02T08:22:40.658Z,100564.97
2023-05-02T08:25:12.205Z,100563.22
2023-05-02T08:27:42.496Z,100561.53
2023-05-02T08:30:12.302Z,100564.94
2023-05-02T08:32:47.125Z,100571.03
2023-05-02T08:37:56.920Z,100551.16
2023-05-02T08:40:40.791Z,100569.28
2023-05-02T08:43:12.934Z,100570.13
2023-05-02T08:45:44.159Z,100557.19
2023-05-02T08:48:21.447Z,100538.19
2023-05-02T08:50:52.117Z,100555.44
2023-05-02T08:53:30.406Z,100556.31
2023-05-02T08:56:01.861Z,100537.28
2023-05-02T08:58:31.893Z,100522.63
2023-05-02T09:01:04.261Z,100554.56
2023-05-02T09:03:35.769Z,100558.91
2023-05-02T09:06:09.111Z,100551.97
2023-05-02T09:08:40.079Z,100555.41
2023-05-02T09:11:12.291Z,100560.53
2023-05-02T09:13:43.250Z,100558.78
2023-05-02T09:16:14.986Z,100570.00
2023-05-02T09:18:50.511Z,100554.44
2023-05-02T09:21:32.089Z,100543.19
2023-05-02T09:24:06.159Z,100554.41
2023-05-02T09:26:37.701Z,100557.91
2023-05-02T09:29:07.289Z,100548.44
2023-05-02T09:34:18.651Z,100545.00
2023-05-02T09:36:50.462Z,100541.50
2023-05-02T09:39:23.812Z,100539.75
2023-05-02T09:42:08.134Z,100538.88
2023-05-02T09:44:40.936Z,100526.78
2023-05-02T09:47:10.932Z,100533.69
2023-05-02T09:49:44.655Z,100520.72
2023-05-02T09:52:14.914Z,100533.66
2023-05-02T09:54:50.366Z,100527.56
2023-05-02T09:57:22.970Z,100528.50
2023-05-02T09:59:58.972Z,100519.78
2023-05-02T10:02:34.510Z,100521.47
2023-05-02T10:05:10.716Z,100524.00
2023-05-02T10:07:41.021Z,100511.00
2023-05-02T10:10:20.849Z,100507.56
2023-05-02T10:12:54.724Z,100505.94
2023-05-02T10:15:25.322Z,100512.88
2023-05-02T10:17:58.539Z,100488.75
2023-05-02T10:20:33.570Z,100506.81
2023-05-02T10:23:03.481Z,100504.22
2023-05-02T10:25:33.238Z,100480.00
2023-05-02T10:28:05.828Z,100504.03
2023-05-02T10:30:37.341Z,100506.56
2023-05-02T10:33:06.976Z,100506.53
2023-05-02T10:35:47.161Z,100503.88
2023-05-02T10:38:24.763Z,100512.50
2023-05-02T10:40:56.362Z,100508.97
2023-05-02T10:43:33.057Z,100507.22
2023-05-02T10:46:03.150Z,100494.22
2023-05-02T10:48:32.826Z,100497.66
2023-05-02T10:51:03.527Z,100481.25
2023-05-02T10:53:36.208Z,100482.97
2023-05-02T10:56:21.118Z,100495.88
2023-05-02T10:58:53.950Z,100490.59
2023-05-02T11:04:23.142Z,100481.94
2023-05-02T11:07:24.750Z,100485.44
2023-05-02T11:09:54.410Z,100484.56
2023-05-02T11:12:48.913Z,100464.66
2023-05-02T11:15:55.293Z,100471.38
2023-05-02T11:18:24.701Z,100467.88
2023-05-02T11:20:53.947Z,100458.47
2023-05-02T11:23:27.840Z,100467.03
2023-05-02T11:26:00.184Z,100467.91
2023-05-02T11:28:48.023Z,100464.41
2023-05-02T11:31:53.852Z,100441.88
2023-05-02T11:34:31.108Z,100464.38
2023-05-02T11:37:00.597Z,100454.88
2023-05-02T11:39:29.865Z,100454.81
2023-05-02T11:42:04.169Z,100455.72
2023-05-02T11:44:33.369Z,100453.97
2023-05-02T11:47:04.244Z,100447.97
2023-05-02T11:49:35.544Z,100451.41
2023-05-02T11:52:09.910Z,100454.91
2023-05-02T11:54:39.390Z,100437.56
2023-05-02T11:57:08.763Z,100442.78
2023-05-02T11:59:52.547Z,100427.97
2023-05-02T12:02:22.963Z,100436.69
2023-05-02T12:04:59.515Z,100450.50
2023-05-02T12:07:39.771Z,100443.63
2023-05-02T12:10:11.121Z,100433.25
2023-05-02T12:12:41.389Z,100428.94
2023-05-02T12:15:12.856Z,100421.09
2023-05-02T12:17:54.274Z,100428.84
2023-05-02T12:20:25.822Z,100427.09
2023-05-02T12:22:55.331Z,100421.91
2023-05-02T12:25:24.516Z,100426.16
2023-05-02T12:28:04.131Z,100420.91
2023-05-02T12:30:41.570Z,100427.84
2023-05-02T12:33:11.227Z,100417.44
2023-05-02T12:35:42.552Z,100423.53
2023-05-02T12:38:19.417Z,100412.16
2023-05-02T12:40:59.676Z,100419.00
2023-05-02T12:43:29.045Z,100414.72
2023-05-02T12:52:00.520Z,100396.59
2023-05-02T12:54:29.886Z,100400.91
2023-05-02T12:56:59.181Z,100393.97
2023-05-02T12:59:34.280Z,100398.16
2023-05-02T13:02:15.045Z,100408.44
2023-05-02T13:04:44.576Z,100391.91
2023-05-02T13:07:15.665Z,100375.66
2023-05-02T13:09:45.082Z,100391.00
2023-05-02T13:12:14.655Z,100400.50
2023-05-02T13:14:44.811Z,100403.03
2023-05-02T13:17:14.957Z,100396.03
2023-05-02T13:19:47.676Z,100389.94
2023-05-02T13:22:22.165Z,100386.34
2023-05-02T13:24:51.645Z,100378.41
2023-05-02T13:27:20.866Z,100382.69
2023-05-02T13:29:51.748Z,100377.47
2023-05-02T13:32:21.436Z,100374.78
2023-05-02T13:34:50.729Z,100371.25
2023-05-02T13:37:22.129Z,100360.94
2023-05-02T13:39:51.506Z,100372.03
2023-05-02T13:42:20.764Z,100358.38
2023-05-02T13:44:50.241Z,100377.47
2023-05-02T13:47:19.386Z,100368.91
2023-05-02T13:49:48.720Z,100358.69
2023-05-02T13:52:18.070Z,100375.91
2023-05-02T13:54:49.643Z,100371.50
2023-05-02T13:57:19.210Z,100367.06
2023-05-02T13:59:48.247Z,100369.75
2023-05-02T14:02:22.841Z,100342.19
2023-05-02T14:04:52.279Z,100353.34
2023-05-02T14:07:21.652Z,100349.00
2023-05-02T14:09:52.852Z,100343.81
2023-05-02T14:12:22.169Z,100347.22
2023-05-02T14:14:51.435Z,100349.78
2023-05-02T14:17:21.079Z,100342.81
2023-05-02T14:19:50.353Z,100340.25
2023-05-02T14:22:19.628Z,100341.19
2023-05-02T14:24:53.840Z,100344.59
2023-05-02T14:27:25.487Z,100345.44
2023-05-02T14:29:55.018Z,100331.53
2023-05-02T14:32:24.192Z,100322.06
2023-05-02T14:34:53.872Z,100328.06
2023-05-02T14:37:23.171Z,100325.50
2023-05-02T14:39:55.814Z,100332.41
2023-05-02T14:42:27.827Z,100324.56
2023-05-02T14:44:59.521Z,100318.56
2023-05-02T14:47:35.144Z,100323.72
2023-05-02T14:50:05.383Z,100325.47
2023-05-02T14:52:35.323Z,100322.91
2023-05-02T14:55:05.061Z,100315.25
2023-05-02T14:57:41.250Z,100330.00
2023-05-02T15:00:11.877Z,100317.03
2023-05-02T15:02:46.479Z,100324.91
2023-05-02T15:05:15.912Z,100317.13
2023-05-02T15:07:51.672Z,100323.19
2023-05-02T15:10:20.943Z,100316.25
2023-05-02T15:12:57.789Z,100316.84
2023-05-02T15:15:27.353Z,100314.88
2023-05-02T15:17:56.868Z,100306.06
2023-05-02T15:20:26.504Z,100261.47
2023-05-02T15:22:56.227Z,100291.66
2023-05-02T15:25:25.666Z,100310.66
2023-05-02T15:28:01.928Z,100305.50
2023-05-02T15:30:31.376Z,100308.81
2023-05-02T15:33:00.811Z,100303.53
2023-05-02T15:35:31.230Z,100308.91
2023-05-02T15:38:03.729Z,100310.78
2023-05-02T15:40:38.361Z,100298.97
2023-05-02T15:43:09.761Z,100303.44
2023-05-02T15:45:39.714Z,100305.34
2023-05-02T15:48:08.979Z,100302.09
2023-05-02T15:50:38.221Z,100296.22
2023-05-02T15:53:07.411Z,100304.88
2023-05-02T15:55:37.540Z,100302.38
2023-05-02T15:58:06.750Z,100305.09
2023-05-02T16:00:38.139Z,100314.75
2023-05-02T16:03:07.925Z,100313.19
2023-05-02T16:05:50.194Z,100305.59
2023-05-02T16:08:19.608Z,100299.69
2023-05-02T16:10:49.404Z,100310.94
2023-05-02T16:13:18.873Z,100304.94
2023-05-02T16:15:51.725Z,100310.09
2023-05-02T16:18:22.875Z,100301.44
2023-05-02T16:20:52.568Z,100300.91
2023-05-02T16:23:21.956Z,100286.28
2023-05-02T16:25:51.542Z,100279.56
2023-05-02T16:28:20.695Z,100291.13
2023-05-02T16:31:10.679Z,100284.59
2023-05-02T16:33:40.238Z,100287.94
2023-05-02T16:36:09.951Z,100284.22
2023-05-02T16:38:39.404Z,100290.63
2023-05-02T16:41:09.858Z,100281.97
2023-05-02T16:43:39.674Z,100279.16
2023-05-02T16:46:10.840Z,100294.50
2023-05-02T16:48:40.364Z,100285.50
2023-05-02T16:51:09.599Z,100288.00
2023-05-02T16:53:50.882Z,100290.81
2023-05-02T16:56:20.135Z,100294.00
2023-05-02T16:58:49.365Z,100298.84
2023-05-02T17:01:21.029Z,100289.75
2023-05-02T17:03:50.451Z,100304.66
2023-05-02T17:06:19.730Z,100275.56
2023-05-02T17:08:49.224Z,100298.94
2023-05-02T17:11:20.870Z,100295.56
2023-05-02T17:13:50.822Z,100299.06
2023-05-02T17:16:27.043Z,100298.25
2023-05-02T17:18:56.382Z,100300.03
2023-05-02T17:21:25.946Z,100296.63
2023-05-02T17:26:31.966Z,100292.31
2023-05-02T17:29:01.173Z,100263.91
2023-05-02T17:31:32.540Z,100288.84
2023-05-02T17:34:01.946Z,100294.06
2023-05-02T17:36:32.114Z,100289.75
2023-05-02T17:39:01.829Z,100282.88
2023-05-02T17:41:31.649Z,100288.91
2023-05-02T17:44:06.805Z,100289.75
2023-05-02T17:46:38.166Z,100288.09
2023-05-02T17:49:12.834Z,100282.09
2023-05-02T17:51:42.186Z,100275.25
2023-05-02T17:54:11.454Z,100286.47
2023-05-02T17:56:40.832Z,100277.03
2023-05-02T17:59:11.379Z,100280.50
2023-05-02T18:01:42.901Z,100268.44
2023-05-02T18:04:12.349Z,100271.88
2023-05-02T18:06:41.626Z,100274.47
2023-05-02T18:09:16.023Z,100259.00
2023-05-02T18:11:50.373Z,100269.34
2023-05-02T18:14:19.860Z,100257.28
2023-05-02T18:16:51.410Z,100260.72
2023-05-02T18:19:22.685Z,100259.03
2023-05-02T18:21:52.261Z,100258.16
2023-05-02T18:24:21.515Z,100253.00
2023-05-02T18:29:31.508Z,100259.84
2023-05-02T18:32:07.673Z,100254.69
2023-05-02T18:34:39.045Z,100217.69
2023-05-02T18:37:09.517Z,100245.22
2023-05-02T18:39:51.054Z,100259.00
2023-05-02T18:42:20.586Z,100254.69
2023-05-02T18:44:49.834Z,100252.97
2023-05-02T18:47:21.651Z,100199.63
2023-05-02T18:49:50.647Z,100250.38
2023-05-02T18:52:19.837Z,100252.13
2023-05-02T18:54:49.428Z,100252.13
2023-05-02T18:57:18.776Z,100241.78
2023-05-02T18:59:48.020Z,100257.28
2023-05-02T19:02:24.466Z,100241.78
2023-05-02T19:04:54.368Z,100247.84
2023-05-02T19:07:23.733Z,100248.69
2023-05-02T19:09:59.635Z,100249.53
2023-05-02T19:12:34.021Z,100247.81
2023-05-02T19:15:09.717Z,100246.09
2023-05-02T19:17:41.131Z,100242.66
2023-05-02T19:20:14.066Z,100226.31
2023-05-02T19:22:45.749Z,100242.63
2023-05-02T19:25:15.472Z,100222.00
2023-05-02T19:27:47.319Z,100230.59
2023-05-02T19:30:17.880Z,100234.03
2023-05-02T19:32:49.394Z,100232.31
2023-05-02T19:35:24.180Z,100226.28
2023-05-02T19:37:53.579Z,100225.41
2023-05-02T19:40:22.753Z,100215.09
2023-05-02T19:42:52.279Z,100229.72
2023-05-02T19:45:26.526Z,100217.63
2023-05-02T19:47:58.577Z,100222.78
2023-05-02T19:50:28.549Z,100222.78
2023-05-02T19:52:57.732Z,100199.50
2023-05-02T19:55:37.263Z,100227.03
2023-05-02T19:58:06.819Z,100220.13
2023-05-02T20:00:36.157Z,100208.06
2023-05-02T20:03:07.738Z,100217.53
2023-05-02T20:05:58.012Z,100214.06
2023-05-02T20:08:33.631Z,100210.63
2023-05-02T20:11:03.316Z,100197.72
2023-05-02T20:13:32.586Z,100204.63
2023-05-02T20:16:07.177Z,100206.34
2023-05-02T20:18:38.591Z,100200.31
2023-05-02T20:21:08.015Z,100194.31
2023-05-02T20:23:53.615Z,100193.47
2023-05-02T20:26:23.165Z,100191.75
2023-05-02T20:28:58.392Z,100192.59
2023-05-02T20:31:28.182Z,100184.00
2023-05-02T20:34:00.375Z,100190.84
2023-05-02T20:36:35.239Z,100199.41
2023-05-02T20:39:10.014Z,100199.41
2023-05-02T20:41:39.616Z,100188.19
2023-05-02T20:44:09.073Z,100192.38
2023-05-02T20:46:38.998Z,100186.34
2023-05-02T20:49:10.348Z,100192.31
2023-05-02T20:51:39.787Z,100182.00
2023-05-02T20:54:08.988Z,100177.69
2023-05-02T20:56:38.283Z,100184.56
2023-05-02T20:59:07.549Z,100181.97
2023-05-02T21:01:37.180Z,100180.25
2023-05-02T21:04:06.931Z,100181.09
2023-05-02T21:06:38.602Z,100178.53
2023-05-02T21:11:53.740Z,100169.94
2023-05-02T21:14:26.080Z,100179.47
2023-05-02T21:16:55.818Z,100170.81
2023-05-02T21:19:25.120Z,100170.88
2023-05-02T21:22:12.533Z,100172.63
2023-05-02T21:24:47.714Z,100177.81
2023-05-02T21:27:17.196Z,100166.63
2023-05-02T21:29:46.494Z,100174.41
2023-05-02T21:32:16.520Z,100140.84
2023-05-02T21:34:45.762Z,100163.28
2023-05-02T21:37:15.157Z,100153.75
2023-05-02T21:39:55.216Z,100142.56
2023-05-02T21:42:29.697Z,100161.50
2023-05-02T21:44:59.210Z,100161.44
2023-05-02T21:47:28.524Z,100158.00
2023-05-02T21:49:58.418Z,100157.09
2023-05-02T21:52:39.029Z,100161.41
2023-05-02T21:55:10.974Z,100151.94
2023-05-02T21:57:40.303Z,100155.34
2023-05-02T22:00:13.266Z,100152.72
2023-05-02T22:02:48.393Z,100138.91
2023-05-02T22:05:18.492Z,100155.31
2023-05-02T22:07:51.955Z,100151.88
2023-05-02T22:10:23.504Z,100150.97
2023-05-02T22:12:52.929Z,100150.94
2023-05-02T22:15:23.258Z,100144.00
2023-05-02T22:18:11.581Z,100171.47
2023-05-02T22:20:41.686Z,100147.44
2023-05-02T22:23:11.068Z,100156.00
2023-05-02T22:25:48.179Z,100145.66
2023-05-02T22:28:22.688Z,100143.91
2023-05-02T22:33:27.047Z,100130.19
2023-05-02T22:36:01.337Z,100114.69
2023-05-02T22:38:30.801Z,100127.63
2023-05-02T22:41:02.853Z,100126.81
2023-05-02T22:43:37.786Z,100098.38
2023-05-02T22:46:07.136Z,100113.94
2023-05-02T22:48:36.620Z,100099.31
2023-05-02T22:51:06.512Z,100119.13
2023-05-02T22:53:35.978Z,100121.69
2023-05-02T22:56:08.276Z,100112.25
2023-05-02T22:58:37.649Z,100118.25
2023-05-02T23:01:06.998Z,100110.56
2023-05-02T23:06:28.836Z,100103.66
2023-05-02T23:08:58.492Z,100103.66
2023-05-02T23:11:29.798Z,100097.66
2023-05-02T23:13:59.261Z,100098.47
2023-05-02T23:16:28.545Z,100102.72
2023-05-02T23:19:03.369Z,100094.97
2023-05-02T23:21:32.621Z,100080.34
2023-05-02T23:24:01.875Z,100091.56
2023-05-02T23:26:38.208Z,100085.50
2023-05-02T23:29:07.562Z,100086.31
2023-05-02T23:31:47.294Z,100063.13
2023-05-02T23:34:16.696Z,100075.19
2023-05-02T23:36:45.854Z,100066.63
2023-05-02T23:39:15.397Z,100067.44
2023-05-02T23:41:46.694Z,100059.69
2023-05-02T23:44:16.403Z,100070.84
2023-05-02T23:46:46.358Z,100073.38
2023-05-02T23:49:27.590Z,100062.19
2023-05-02T23:51:56.914Z,100070.78
2023-05-02T23:54:26.265Z,100056.19
2023-05-02T23:57:03.337Z,100019.22
2023-05-02T23:59:32.656Z,100049.28
